Eleanor, Illinois
Current Conditions -  °F | °C
As of 11:15 PM on Thursday 30 Oct 2014 (Local Time) from KGBG Reporting Station
Overcast Overcast  
Wind Chill: 43°   Ceiling: 6000
Heat Index: 43°   Visibility: 10mi
Dew Point: 41°   Wind: 0mph
Humidity: 91%   Direction: NA
Pressure: 30.1"   Gusts: NA
Location:  41.0248°N, 90.7263°W
Report Text: KGBG 310415Z AUTO 00000KT 10SM OVC060 06/05 A3010 RMK AO2 T00630050
Loading
Personal Weather Stations






























Interactive Weather Map
Tropical Storm Tracking
New forecast layout! Learn more

10-Day Weather Forecast

Advertisements
Track Severe Weather on mobile